Starrville, Texas
Current Conditions -  °F | °C
As of 11:53 AM on Thursday 29 Jan 2015 (Local Time) from KTYR Reporting Station
Clear Clear  
Wind Chill: 69°   Ceiling: Unl
Heat Index: 69°   Visibility: 10mi
Dew Point: 47°   Wind: 6mph
Humidity: 45%   Direction: NA
Pressure: 30.24"   Gusts: NA
Location:  32.4644°N, 95.1125°W
Report Text: KTYR 291753Z VRB05KT 10SM CLR 21/08 A3024 RMK AO2 SLP235 T02060083 10206 20133 50013
Loading
Personal Weather Stations






























Interactive Weather Map New forecast layout! Learn more

10-Day Weather Forecast

Advertisements
Track Severe Weather on mobile